sensor_id;sensor_type;location;lat;lon;timestamp;temperature;humidity
10986;DHT22;5546;48.714;8.738;2022-11-23T00:00:25;5.80;96.50
10986;DHT22;5546;48.714;8.738;2022-11-23T00:02:54;5.80;96.80
10986;DHT22;5546;48.714;8.738;2022-11-23T00:05:20;5.80;97.10
10986;DHT22;5546;48.714;8.738;2022-11-23T00:07:45;5.80;97.10
10986;DHT22;5546;48.714;8.738;2022-11-23T00:10:11;5.90;96.90
10986;DHT22;5546;48.714;8.738;2022-11-23T00:15:04;6.00;96.70
10986;DHT22;5546;48.714;8.738;2022-11-23T00:17:30;6.30;96.70
10986;DHT22;5546;48.714;8.738;2022-11-23T00:19:55;6.40;96.60
10986;DHT22;5546;48.714;8.738;2022-11-23T00:22:21;6.20;96.50
10986;DHT22;5546;48.714;8.738;2022-11-23T00:24:47;6.20;96.70
10986;DHT22;5546;48.714;8.738;2022-11-23T00:27:12;5.80;97.50
10986;DHT22;5546;48.714;8.738;2022-11-23T00:29:38;5.90;97.60
10986;DHT22;5546;48.714;8.738;2022-11-23T00:32:04;6.10;97.30
10986;DHT22;5546;48.714;8.738;2022-11-23T00:34:29;6.20;97.10
10986;DHT22;5546;48.714;8.738;2022-11-23T00:36:55;6.10;97.00
10986;DHT22;5546;48.714;8.738;2022-11-23T00:39:20;6.10;97.30
10986;DHT22;5546;48.714;8.738;2022-11-23T00:41:46;6.30;97.30
10986;DHT22;5546;48.714;8.738;2022-11-23T00:44:11;6.30;97.10
10986;DHT22;5546;48.714;8.738;2022-11-23T00:46:37;6.40;96.80
10986;DHT22;5546;48.714;8.738;2022-11-23T00:49:02;6.30;97.10
10986;DHT22;5546;48.714;8.738;2022-11-23T00:51:30;6.30;97.00
10986;DHT22;5546;48.714;8.738;2022-11-23T00:53:57;5.80;97.30
10986;DHT22;5546;48.714;8.738;2022-11-23T00:56:23;5.90;97.60
10986;DHT22;5546;48.714;8.738;2022-11-23T00:58:52;6.00;97.50
10986;DHT22;5546;48.714;8.738;2022-11-23T01:01:20;6.00;97.80
10986;DHT22;5546;48.714;8.738;2022-11-23T01:03:51;6.00;97.40
10986;DHT22;5546;48.714;8.738;2022-11-23T01:06:26;6.10;97.50
10986;DHT22;5546;48.714;8.738;2022-11-23T01:08:57;6.10;97.40
10986;DHT22;5546;48.714;8.738;2022-11-23T01:11:26;6.00;96.70
10986;DHT22;5546;48.714;8.738;2022-11-23T01:13:52;6.10;97.20
10986;DHT22;5546;48.714;8.738;2022-11-23T01:16:21;6.20;96.70
10986;DHT22;5546;48.714;8.738;2022-11-23T01:18:58;6.00;96.60
10986;DHT22;5546;48.714;8.738;2022-11-23T01:21:24;6.10;96.60
10986;DHT22;5546;48.714;8.738;2022-11-23T01:23:51;6.10;97.00
10986;DHT22;5546;48.714;8.738;2022-11-23T01:26:17;6.40;96.80
10986;DHT22;5546;48.714;8.738;2022-11-23T01:28:43;6.40;96.30
10986;DHT22;5546;48.714;8.738;2022-11-23T01:31:14;5.70;97.20
10986;DHT22;5546;48.714;8.738;2022-11-23T01:33:41;5.70;97.50
10986;DHT22;5546;48.714;8.738;2022-11-23T01:36:20;5.40;97.70
10986;DHT22;5546;48.714;8.738;2022-11-23T01:38:47;5.30;98.10
10986;DHT22;5546;48.714;8.738;2022-11-23T01:41:15;5.30;98.30
10986;DHT22;5546;48.714;8.738;2022-11-23T01:43:42;5.70;97.30
10986;DHT22;5546;48.714;8.738;2022-11-23T01:46:08;5.70;97.60
10986;DHT22;5546;48.714;8.738;2022-11-23T01:49:22;6.00;96.50
10986;DHT22;5546;48.714;8.738;2022-11-23T01:51:38;6.00;96.80
10986;DHT22;5546;48.714;8.738;2022-11-23T01:54:06;6.30;96.50
10986;DHT22;5546;48.714;8.738;2022-11-23T01:56:38;6.30;96.20
10986;DHT22;5546;48.714;8.738;2022-11-23T01:59:08;6.10;95.70
10986;DHT22;5546;48.714;8.738;2022-11-23T02:01:35;5.70;97.20
10986;DHT22;5546;48.714;8.738;2022-11-23T02:04:00;5.70;96.70
10986;DHT22;5546;48.714;8.738;2022-11-23T02:06:27;5.70;96.60
10986;DHT22;5546;48.714;8.738;2022-11-23T02:08:53;5.80;96.50
10986;DHT22;5546;48.714;8.738;2022-11-23T02:11:18;5.80;96.80
10986;DHT22;5546;48.714;8.738;2022-11-23T02:13:46;6.10;96.20
10986;DHT22;5546;48.714;8.738;2022-11-23T02:16:13;6.00;96.50
10986;DHT22;5546;48.714;8.738;2022-11-23T02:18:42;5.90;96.80
10986;DHT22;5546;48.714;8.738;2022-11-23T02:21:08;6.10;96.50
10986;DHT22;5546;48.714;8.738;2022-11-23T02:26:13;6.00;96.40
10986;DHT22;5546;48.714;8.738;2022-11-23T02:28:43;6.00;96.40
10986;DHT22;5546;48.714;8.738;2022-11-23T02:31:09;5.80;96.50
10986;DHT22;5546;48.714;8.738;2022-11-23T02:33:38;5.80;96.40
10986;DHT22;5546;48.714;8.738;2022-11-23T02:36:41;5.80;96.70
10986;DHT22;5546;48.714;8.738;2022-11-23T02:39:08;5.60;96.70
10986;DHT22;5546;48.714;8.738;2022-11-23T02:41:48;5.40;96.90
10986;DHT22;5546;48.714;8.738;2022-11-23T02:44:23;5.20;97.20
10986;DHT22;5546;48.714;8.738;2022-11-23T02:46:50;5.20;97.70
10986;DHT22;5546;48.714;8.738;2022-11-23T02:49:16;5.50;97.50
10986;DHT22;5546;48.714;8.738;2022-11-23T02:51:41;6.10;97.10
10986;DHT22;5546;48.714;8.738;2022-11-23T02:54:07;5.80;96.80
10986;DHT22;5546;48.714;8.738;2022-11-23T02:56:32;5.50;96.60
10986;DHT22;5546;48.714;8.738;2022-11-23T02:58:58;5.80;97.00
10986;DHT22;5546;48.714;8.738;2022-11-23T03:01:23;5.80;96.70
10986;DHT22;5546;48.714;8.738;2022-11-23T03:03:49;5.50;96.70
10986;DHT22;5546;48.714;8.738;2022-11-23T03:06:14;5.50;97.00
10986;DHT22;5546;48.714;8.738;2022-11-23T03:08:40;5.60;97.00
10986;DHT22;5546;48.714;8.738;2022-11-23T03:11:05;5.80;96.50
10986;DHT22;5546;48.714;8.738;2022-11-23T03:13:31;5.70;96.70
10986;DHT22;5546;48.714;8.738;2022-11-23T03:15:56;6.00;95.50
10986;DHT22;5546;48.714;8.738;2022-11-23T03:18:22;6.00;95.80
10986;DHT22;5546;48.714;8.738;2022-11-23T03:20:47;6.10;95.90
10986;DHT22;5546;48.714;8.738;2022-11-23T03:23:13;6.10;95.90
10986;DHT22;5546;48.714;8.738;2022-11-23T03:25:38;6.00;96.30
10986;DHT22;5546;48.714;8.738;2022-11-23T03:28:04;5.60;96.20
10986;DHT22;5546;48.714;8.738;2022-11-23T03:30:30;5.50;97.00
10986;DHT22;5546;48.714;8.738;2022-11-23T03:32:56;5.60;96.90
10986;DHT22;5546;48.714;8.738;2022-11-23T03:35:21;5.50;96.40
10986;DHT22;5546;48.714;8.738;2022-11-23T03:37:47;5.30;96.90
10986;DHT22;5546;48.714;8.738;2022-11-23T03:40:13;5.30;97.20
10986;DHT22;5546;48.714;8.738;2022-11-23T03:42:39;5.40;97.10
10986;DHT22;5546;48.714;8.738;2022-11-23T03:45:05;5.50;97.10
10986;DHT22;5546;48.714;8.738;2022-11-23T03:47:31;5.80;96.80
10986;DHT22;5546;48.714;8.738;2022-11-23T03:49:56;5.70;96.70
10986;DHT22;5546;48.714;8.738;2022-11-23T03:52:22;5.70;96.70
10986;DHT22;5546;48.714;8.738;2022-11-23T03:54:47;5.70;96.30
10986;DHT22;5546;48.714;8.738;2022-11-23T03:57:13;5.30;96.80
10986;DHT22;5546;48.714;8.738;2022-11-23T03:59:38;5.00;96.80
10986;DHT22;5546;48.714;8.738;2022-11-23T04:02:04;5.00;97.30
10986;DHT22;5546;48.714;8.738;2022-11-23T04:04:32;5.00;97.50
10986;DHT22;5546;48.714;8.738;2022-11-23T04:06:57;4.60;97.80
10986;DHT22;5546;48.714;8.738;2022-11-23T04:09:23;4.60;98.10
10986;DHT22;5546;48.714;8.738;2022-11-23T04:11:48;5.20;97.60
10986;DHT22;5546;48.714;8.738;2022-11-23T04:14:14;5.10;97.20
10986;DHT22;5546;48.714;8.738;2022-11-23T04:16:39;5.00;97.60
10986;DHT22;5546;48.714;8.738;2022-11-23T04:19:05;4.40;98.00
10986;DHT22;5546;48.714;8.738;2022-11-23T04:21:30;4.40;98.80
10986;DHT22;5546;48.714;8.738;2022-11-23T04:23:56;4.50;97.90
10986;DHT22;5546;48.714;8.738;2022-11-23T04:26:21;4.60;98.10
10986;DHT22;5546;48.714;8.738;2022-11-23T04:28:47;4.80;97.60
10986;DHT22;5546;48.714;8.738;2022-11-23T04:31:12;5.10;97.10
10986;DHT22;5546;48.714;8.738;2022-11-23T04:33:38;5.20;97.40
10986;DHT22;5546;48.714;8.738;2022-11-23T04:36:04;5.50;96.80
10986;DHT22;5546;48.714;8.738;2022-11-23T04:38:29;5.60;96.10
10986;DHT22;5546;48.714;8.738;2022-11-23T04:40:55;5.60;96.40
10986;DHT22;5546;48.714;8.738;2022-11-23T04:43:20;5.40;96.30
10986;DHT22;5546;48.714;8.738;2022-11-23T04:45:46;5.40;96.60
10986;DHT22;5546;48.714;8.738;2022-11-23T04:48:11;5.40;96.40
10986;DHT22;5546;48.714;8.738;2022-11-23T04:50:37;5.10;96.60
10986;DHT22;5546;48.714;8.738;2022-11-23T04:53:03;5.10;96.90
10986;DHT22;5546;48.714;8.738;2022-11-23T04:55:29;5.30;97.20
10986;DHT22;5546;48.714;8.738;2022-11-23T04:57:55;5.10;97.30
10986;DHT22;5546;48.714;8.738;2022-11-23T05:00:20;5.20;97.10
10986;DHT22;5546;48.714;8.738;2022-11-23T05:02:46;5.20;96.90
10986;DHT22;5546;48.714;8.738;2022-11-23T05:05:11;5.50;96.30
10986;DHT22;5546;48.714;8.738;2022-11-23T05:07:37;5.50;96.30
10986;DHT22;5546;48.714;8.738;2022-11-23T05:10:03;5.60;96.30
10986;DHT22;5546;48.714;8.738;2022-11-23T05:12:29;5.40;96.40
10986;DHT22;5546;48.714;8.738;2022-11-23T05:14:54;5.30;96.40
10986;DHT22;5546;48.714;8.738;2022-11-23T05:17:19;5.70;96.50
10986;DHT22;5546;48.714;8.738;2022-11-23T05:19:45;5.40;96.00
10986;DHT22;5546;48.714;8.738;2022-11-23T05:24:37;4.40;97.40
10986;DHT22;5546;48.714;8.738;2022-11-23T05:27:02;5.00;97.10
10986;DHT22;5546;48.714;8.738;2022-11-23T05:29:28;5.00;97.30
10986;DHT22;5546;48.714;8.738;2022-11-23T05:31:53;5.20;96.80
10986;DHT22;5546;48.714;8.738;2022-11-23T05:34:19;5.00;95.80
10986;DHT22;5546;48.714;8.738;2022-11-23T05:36:44;5.00;96.10
10986;DHT22;5546;48.714;8.738;2022-11-23T05:39:10;5.00;96.80
10986;DHT22;5546;48.714;8.738;2022-11-23T05:41:35;4.90;96.90
10986;DHT22;5546;48.714;8.738;2022-11-23T05:44:01;4.60;97.30
10986;DHT22;5546;48.714;8.738;2022-11-23T05:46:27;4.90;96.80
10986;DHT22;5546;48.714;8.738;2022-11-23T05:48:52;5.00;96.40
10986;DHT22;5546;48.714;8.738;2022-11-23T05:51:18;4.90;96.60
10986;DHT22;5546;48.714;8.738;2022-11-23T05:53:43;4.60;97.00
10986;DHT22;5546;48.714;8.738;2022-11-23T05:56:09;4.40;97.70
10986;DHT22;5546;48.714;8.738;2022-11-23T05:58:34;4.80;97.80
10986;DHT22;5546;48.714;8.738;2022-11-23T06:01:00;4.90;96.80
10986;DHT22;5546;48.714;8.738;2022-11-23T06:03:26;5.10;96.80
10986;DHT22;5546;48.714;8.738;2022-11-23T06:05:52;5.10;96.30
10986;DHT22;5546;48.714;8.738;2022-11-23T06:08:17;5.10;96.60
10986;DHT22;5546;48.714;8.738;2022-11-23T06:10:43;5.50;96.40
10986;DHT22;5546;48.714;8.738;2022-11-23T06:13:08;5.40;96.10
10986;DHT22;5546;48.714;8.738;2022-11-23T06:15:34;5.40;95.90
10986;DHT22;5546;48.714;8.738;2022-11-23T06:18:00;5.60;95.80
10986;DHT22;5546;48.714;8.738;2022-11-23T06:20:27;5.60;96.10
10986;DHT22;5546;48.714;8.738;2022-11-23T06:22:54;5.50;96.10
10986;DHT22;5546;48.714;8.738;2022-11-23T06:25:20;5.60;95.50
10986;DHT22;5546;48.714;8.738;2022-11-23T06:27:56;5.80;95.50
10986;DHT22;5546;48.714;8.738;2022-11-23T06:30:22;5.80;95.80
10986;DHT22;5546;48.714;8.738;2022-11-23T06:32:48;5.60;95.50
10986;DHT22;5546;48.714;8.738;2022-11-23T06:35:14;4.90;96.70
10986;DHT22;5546;48.714;8.738;2022-11-23T06:37:39;4.70;97.10
10986;DHT22;5546;48.714;8.738;2022-11-23T06:40:05;4.40;97.50
10986;DHT22;5546;48.714;8.738;2022-11-23T06:42:31;4.60;97.50
10986;DHT22;5546;48.714;8.738;2022-11-23T06:44:56;4.60;97.70
10986;DHT22;5546;48.714;8.738;2022-11-23T06:49:48;5.00;96.50
10986;DHT22;5546;48.714;8.738;2022-11-23T06:52:13;4.80;96.70
10986;DHT22;5546;48.714;8.738;2022-11-23T06:54:39;4.70;97.00
10986;DHT22;5546;48.714;8.738;2022-11-23T06:57:07;5.00;97.30
10986;DHT22;5546;48.714;8.738;2022-11-23T06:59:33;4.30;97.50
10986;DHT22;5546;48.714;8.738;2022-11-23T07:01:59;4.30;97.80
10986;DHT22;5546;48.714;8.738;2022-11-23T07:04:24;4.10;97.70
10986;DHT22;5546;48.714;8.738;2022-11-23T07:06:50;4.20;98.10
10986;DHT22;5546;48.714;8.738;2022-11-23T07:09:15;4.30;98.40
10986;DHT22;5546;48.714;8.738;2022-11-23T07:11:41;4.50;97.70
10986;DHT22;5546;48.714;8.738;2022-11-23T07:14:07;4.40;97.70
10986;DHT22;5546;48.714;8.738;2022-11-23T07:16:32;4.30;98.20
10986;DHT22;5546;48.714;8.738;2022-11-23T07:18:58;4.70;97.80
10986;DHT22;5546;48.714;8.738;2022-11-23T07:21:23;4.50;97.90
10986;DHT22;5546;48.714;8.738;2022-11-23T07:23:49;4.60;97.90
10986;DHT22;5546;48.714;8.738;2022-11-23T07:26:15;4.80;97.70
10986;DHT22;5546;48.714;8.738;2022-11-23T07:28:40;4.70;97.20
10986;DHT22;5546;48.714;8.738;2022-11-23T07:31:06;4.70;97.50
10986;DHT22;5546;48.714;8.738;2022-11-23T07:33:32;4.60;97.50
10986;DHT22;5546;48.714;8.738;2022-11-23T07:36:00;4.70;97.90
10986;DHT22;5546;48.714;8.738;2022-11-23T07:38:27;4.90;97.80
10986;DHT22;5546;48.714;8.738;2022-11-23T07:40:52;5.30;96.80
10986;DHT22;5546;48.714;8.738;2022-11-23T07:43:18;5.50;97.10
10986;DHT22;5546;48.714;8.738;2022-11-23T07:45:43;5.40;96.40
10986;DHT22;5546;48.714;8.738;2022-11-23T07:48:09;5.40;96.40
10986;DHT22;5546;48.714;8.738;2022-11-23T07:50:36;5.40;96.40
10986;DHT22;5546;48.714;8.738;2022-11-23T07:53:03;5.40;96.70
10986;DHT22;5546;48.714;8.738;2022-11-23T07:55:29;5.60;96.40
10986;DHT22;5546;48.714;8.738;2022-11-23T07:57:56;6.00;95.80
10986;DHT22;5546;48.714;8.738;2022-11-23T08:00:23;6.00;95.20
10986;DHT22;5546;48.714;8.738;2022-11-23T08:02:49;6.00;95.50
10986;DHT22;5546;48.714;8.738;2022-11-23T08:05:15;5.70;95.60
10986;DHT22;5546;48.714;8.738;2022-11-23T08:07:41;5.80;95.70
10986;DHT22;5546;48.714;8.738;2022-11-23T08:10:07;5.40;96.10
10986;DHT22;5546;48.714;8.738;2022-11-23T08:12:34;5.40;96.30
10986;DHT22;5546;48.714;8.738;2022-11-23T08:14:59;5.60;95.90
10986;DHT22;5546;48.714;8.738;2022-11-23T08:17:25;6.00;95.80
10986;DHT22;5546;48.714;8.738;2022-11-23T08:19:50;6.10;96.40
10986;DHT22;5546;48.714;8.738;2022-11-23T08:22:16;6.10;95.60
10986;DHT22;5546;48.714;8.738;2022-11-23T08:24:41;5.80;95.80
10986;DHT22;5546;48.714;8.738;2022-11-23T08:27:07;5.80;96.10
10986;DHT22;5546;48.714;8.738;2022-11-23T08:29:32;6.20;95.40
10986;DHT22;5546;48.714;8.738;2022-11-23T08:31:58;5.80;95.40
10986;DHT22;5546;48.714;8.738;2022-11-23T08:34:23;5.80;95.70
10986;DHT22;5546;48.714;8.738;2022-11-23T08:36:49;5.80;96.20
10986;DHT22;5546;48.714;8.738;2022-11-23T08:39:15;6.30;95.70
10986;DHT22;5546;48.714;8.738;2022-11-23T08:41:41;6.60;95.00
10986;DHT22;5546;48.714;8.738;2022-11-23T08:44:07;7.10;94.90
10986;DHT22;5546;48.714;8.738;2022-11-23T08:46:35;7.00;93.80
10986;DHT22;5546;48.714;8.738;2022-11-23T08:49:01;7.00;94.10
10986;DHT22;5546;48.714;8.738;2022-11-23T08:51:26;7.00;94.40
10986;DHT22;5546;48.714;8.738;2022-11-23T08:53:52;7.10;94.40
10986;DHT22;5546;48.714;8.738;2022-11-23T08:56:17;7.20;94.20
10986;DHT22;5546;48.714;8.738;2022-11-23T08:58:43;7.70;93.80
10986;DHT22;5546;48.714;8.738;2022-11-23T09:01:10;8.00;93.00
10986;DHT22;5546;48.714;8.738;2022-11-23T09:03:35;7.90;93.10
10986;DHT22;5546;48.714;8.738;2022-11-23T09:06:01;7.90;93.30
10986;DHT22;5546;48.714;8.738;2022-11-23T09:08:27;7.80;93.00
10986;DHT22;5546;48.714;8.738;2022-11-23T09:10:53;7.80;93.30
10986;DHT22;5546;48.714;8.738;2022-11-23T09:13:18;7.80;93.50
10986;DHT22;5546;48.714;8.738;2022-11-23T09:15:44;7.50;93.80
10986;DHT22;5546;48.714;8.738;2022-11-23T09:18:09;7.00;94.50
10986;DHT22;5546;48.714;8.738;2022-11-23T09:20:38;7.00;94.80
10986;DHT22;5546;48.714;8.738;2022-11-23T09:23:04;7.30;94.30
10986;DHT22;5546;48.714;8.738;2022-11-23T09:25:29;7.30;94.60
10986;DHT22;5546;48.714;8.738;2022-11-23T09:27:58;7.40;94.20
10986;DHT22;5546;48.714;8.738;2022-11-23T09:30:24;7.10;94.60
10986;DHT22;5546;48.714;8.738;2022-11-23T09:32:50;7.10;95.00
10986;DHT22;5546;48.714;8.738;2022-11-23T09:35:15;7.30;94.90
10986;DHT22;5546;48.714;8.738;2022-11-23T09:37:41;7.30;95.20
10986;DHT22;5546;48.714;8.738;2022-11-23T09:40:09;7.40;95.40
10986;DHT22;5546;48.714;8.738;2022-11-23T09:42:41;10.00;95.00
10986;DHT22;5546;48.714;8.738;2022-11-23T09:45:43;12.40;90.30
10986;DHT22;5546;48.714;8.738;2022-11-23T09:48:24;12.90;89.90
10986;DHT22;5546;48.714;8.738;2022-11-23T09:51:03;14.70;82.40
10986;DHT22;5546;48.714;8.738;2022-11-23T09:56:17;19.40;70.60
10986;DHT22;5546;48.714;8.738;2022-11-23T09:58:44;21.60;63.30
10986;DHT22;5546;48.714;8.738;2022-11-23T10:01:13;22.30;58.50
10986;DHT22;5546;48.714;8.738;2022-11-23T10:03:40;22.10;56.00
10986;DHT22;5546;48.714;8.738;2022-11-23T10:14:34;25.90;49.80
10986;DHT22;5546;48.714;8.738;2022-11-23T10:23:02;26.30;48.60
10986;DHT22;5546;48.714;8.738;2022-11-23T10:25:32;25.40;47.60
10986;DHT22;5546;48.714;8.738;2022-11-23T10:28:01;24.80;48.50
10986;DHT22;5546;48.714;8.738;2022-11-23T10:30:31;24.10;49.10
10986;DHT22;5546;48.714;8.738;2022-11-23T10:33:00;23.70;49.80
10986;DHT22;5546;48.714;8.738;2022-11-23T10:35:29;22.80;50.90
10986;DHT22;5546;48.714;8.738;2022-11-23T10:38:13;23.10;52.10
10986;DHT22;5546;48.714;8.738;2022-11-23T10:40:42;23.90;49.90
10986;DHT22;5546;48.714;8.738;2022-11-23T10:43:20;23.80;50.90
10986;DHT22;5546;48.714;8.738;2022-11-23T10:45:46;23.50;51.60
10986;DHT22;5546;48.714;8.738;2022-11-23T10:48:34;23.50;50.40
10986;DHT22;5546;48.714;8.738;2022-11-23T10:51:25;21.60;53.60
10986;DHT22;5546;48.714;8.738;2022-11-23T10:53:54;19.50;56.10
10986;DHT22;5546;48.714;8.738;2022-11-23T10:56:21;19.40;56.70
10986;DHT22;5546;48.714;8.738;2022-11-23T10:58:47;16.20;65.80
10986;DHT22;5546;48.714;8.738;2022-11-23T11:01:15;15.70;68.50
10986;DHT22;5546;48.714;8.738;2022-11-23T11:03:43;14.70;71.30
10986;DHT22;5546;48.714;8.738;2022-11-23T11:06:08;14.30;72.70
10986;DHT22;5546;48.714;8.738;2022-11-23T11:08:48;13.20;77.10
10986;DHT22;5546;48.714;8.738;2022-11-23T11:11:27;13.20;77.80
10986;DHT22;5546;48.714;8.738;2022-11-23T11:14:14;12.60;81.70
10986;DHT22;5546;48.714;8.738;2022-11-23T11:16:54;12.40;83.30
10986;DHT22;5546;48.714;8.738;2022-11-23T11:19:30;11.80;85.10
10986;DHT22;5546;48.714;8.738;2022-11-23T11:21:58;11.50;87.00
10986;DHT22;5546;48.714;8.738;2022-11-23T11:24:41;10.70;90.30
10986;DHT22;5546;48.714;8.738;2022-11-23T11:27:20;10.60;90.60
10986;DHT22;5546;48.714;8.738;2022-11-23T11:29:49;10.40;91.60
10986;DHT22;5546;48.714;8.738;2022-11-23T11:32:55;9.70;92.70
10986;DHT22;5546;48.714;8.738;2022-11-23T11:35:29;9.70;93.20
10986;DHT22;5546;48.714;8.738;2022-11-23T11:38:00;9.90;92.20
10986;DHT22;5546;48.714;8.738;2022-11-23T11:45:25;9.40;94.10
10986;DHT22;5546;48.714;8.738;2022-11-23T11:48:15;9.50;94.30
10986;DHT22;5546;48.714;8.738;2022-11-23T11:50:50;9.60;94.30
10986;DHT22;5546;48.714;8.738;2022-11-23T11:53:21;9.80;94.20
10986;DHT22;5546;48.714;8.738;2022-11-23T11:55:56;9.60;94.40
10986;DHT22;5546;48.714;8.738;2022-11-23T11:58:24;9.60;94.70
10986;DHT22;5546;48.714;8.738;2022-11-23T12:00:55;9.00;95.40
10986;DHT22;5546;48.714;8.738;2022-11-23T12:03:40;9.10;95.80
10986;DHT22;5546;48.714;8.738;2022-11-23T12:06:15;9.20;95.90
10986;DHT22;5546;48.714;8.738;2022-11-23T12:12:03;9.30;92.90
10986;DHT22;5546;48.714;8.738;2022-11-23T12:14:30;9.70;93.00
10986;DHT22;5546;48.714;8.738;2022-11-23T12:20:15;9.90;93.50
10986;DHT22;5546;48.714;8.738;2022-11-23T12:25:39;10.00;92.20
10986;DHT22;5546;48.714;8.738;2022-11-23T12:31:14;10.10;92.40
10986;DHT22;5546;48.714;8.738;2022-11-23T12:36:44;10.20;92.80
10986;DHT22;5546;48.714;8.738;2022-11-23T12:39:32;10.30;93.70
10986;DHT22;5546;48.714;8.738;2022-11-23T12:42:22;10.50;93.60
10986;DHT22;5546;48.714;8.738;2022-11-23T12:48:11;9.80;93.40
10986;DHT22;5546;48.714;8.738;2022-11-23T12:53:46;9.70;94.40
10986;DHT22;5546;48.714;8.738;2022-11-23T12:56:24;9.80;93.90
10986;DHT22;5546;48.714;8.738;2022-11-23T12:58:54;9.90;94.60
10986;DHT22;5546;48.714;8.738;2022-11-23T13:01:44;9.80;93.10
10986;DHT22;5546;48.714;8.738;2022-11-23T13:04:41;10.00;93.70
10986;DHT22;5546;48.714;8.738;2022-11-23T13:07:31;10.30;93.20
10986;DHT22;5546;48.714;8.738;2022-11-23T13:10:11;10.30;92.40
10986;DHT22;5546;48.714;8.738;2022-11-23T13:16:08;10.50;93.70
10986;DHT22;5546;48.714;8.738;2022-11-23T13:18:57;10.40;93.30
10986;DHT22;5546;48.714;8.738;2022-11-23T13:21:37;10.30;93.60
10986;DHT22;5546;48.714;8.738;2022-11-23T13:24:21;10.10;94.30
10986;DHT22;5546;48.714;8.738;2022-11-23T13:35:01;9.90;94.40
10986;DHT22;5546;48.714;8.738;2022-11-23T13:37:27;9.70;94.70
10986;DHT22;5546;48.714;8.738;2022-11-23T13:42:25;9.60;95.60
10986;DHT22;5546;48.714;8.738;2022-11-23T13:50:36;9.50;95.80
10986;DHT22;5546;48.714;8.738;2022-11-23T13:53:04;9.40;95.50
10986;DHT22;5546;48.714;8.738;2022-11-23T13:55:43;9.60;94.50
10986;DHT22;5546;48.714;8.738;2022-11-23T14:00:55;9.60;95.50
10986;DHT22;5546;48.714;8.738;2022-11-23T14:06:39;9.40;96.00
10986;DHT22;5546;48.714;8.738;2022-11-23T14:12:03;9.60;95.80
10986;DHT22;5546;48.714;8.738;2022-11-23T14:29:25;9.80;94.90
10986;DHT22;5546;48.714;8.738;2022-11-23T14:32:09;9.50;95.80
10986;DHT22;5546;48.714;8.738;2022-11-23T14:37:50;9.30;95.90
10986;DHT22;5546;48.714;8.738;2022-11-23T14:43:23;9.40;96.60
10986;DHT22;5546;48.714;8.738;2022-11-23T14:45:49;9.50;96.00
10986;DHT22;5546;48.714;8.738;2022-11-23T14:48:29;9.50;96.20
10986;DHT22;5546;48.714;8.738;2022-11-23T14:51:04;9.60;96.50
10986;DHT22;5546;48.714;8.738;2022-11-23T14:53:33;9.20;96.90
10986;DHT22;5546;48.714;8.738;2022-11-23T14:55:59;9.20;97.10
10986;DHT22;5546;48.714;8.738;2022-11-23T14:58:27;9.40;96.70
10986;DHT22;5546;48.714;8.738;2022-11-23T15:00:59;9.50;96.30
10986;DHT22;5546;48.714;8.738;2022-11-23T15:03:27;9.50;96.30
10986;DHT22;5546;48.714;8.738;2022-11-23T15:06:07;9.30;96.60
10986;DHT22;5546;48.714;8.738;2022-11-23T15:11:40;9.80;95.90
10986;DHT22;5546;48.714;8.738;2022-11-23T15:14:18;9.80;96.10
10986;DHT22;5546;48.714;8.738;2022-11-23T15:16:44;9.80;96.10
10986;DHT22;5546;48.714;8.738;2022-11-23T15:19:26;9.80;96.20
10986;DHT22;5546;48.714;8.738;2022-11-23T15:21:53;9.60;96.30
10986;DHT22;5546;48.714;8.738;2022-11-23T15:24:24;9.60;96.80
10986;DHT22;5546;48.714;8.738;2022-11-23T15:26:50;9.70;96.20
10986;DHT22;5546;48.714;8.738;2022-11-23T15:29:50;9.70;96.50
10986;DHT22;5546;48.714;8.738;2022-11-23T15:32:23;9.90;96.10
10986;DHT22;5546;48.714;8.738;2022-11-23T15:34:52;9.90;95.90
10986;DHT22;5546;48.714;8.738;2022-11-23T15:37:18;10.20;95.60
10986;DHT22;5546;48.714;8.738;2022-11-23T15:39:44;10.00;95.60
10986;DHT22;5546;48.714;8.738;2022-11-23T15:42:15;9.70;96.30
10986;DHT22;5546;48.714;8.738;2022-11-23T15:44:42;9.60;96.50
10986;DHT22;5546;48.714;8.738;2022-11-23T15:47:13;9.70;96.20
10986;DHT22;5546;48.714;8.738;2022-11-23T15:49:42;9.80;96.40
10986;DHT22;5546;48.714;8.738;2022-11-23T15:52:13;9.90;96.10
10986;DHT22;5546;48.714;8.738;2022-11-23T15:54:39;9.90;96.10
10986;DHT22;5546;48.714;8.738;2022-11-23T15:57:07;9.90;96.00
10986;DHT22;5546;48.714;8.738;2022-11-23T16:00:01;10.00;95.60
10986;DHT22;5546;48.714;8.738;2022-11-23T16:02:29;10.10;95.50
10986;DHT22;5546;48.714;8.738;2022-11-23T16:05:15;10.20;95.20
10986;DHT22;5546;48.714;8.738;2022-11-23T16:07:58;10.30;94.90
10986;DHT22;5546;48.714;8.738;2022-11-23T16:12:58;10.40;94.90
10986;DHT22;5546;48.714;8.738;2022-11-23T16:17:59;10.50;95.10
10986;DHT22;5546;48.714;8.738;2022-11-23T16:20:25;10.60;95.10
10986;DHT22;5546;48.714;8.738;2022-11-23T16:22:53;10.60;95.30
10986;DHT22;5546;48.714;8.738;2022-11-23T16:25:27;10.50;95.50
10986;DHT22;5546;48.714;8.738;2022-11-23T16:28:00;10.40;95.60
10986;DHT22;5546;48.714;8.738;2022-11-23T16:30:37;10.40;95.60
10986;DHT22;5546;48.714;8.738;2022-11-23T16:33:03;10.40;95.50
10986;DHT22;5546;48.714;8.738;2022-11-23T16:35:29;10.40;95.40
10986;DHT22;5546;48.714;8.738;2022-11-23T16:37:54;10.60;95.70
10986;DHT22;5546;48.714;8.738;2022-11-23T16:40:20;10.50;95.40
10986;DHT22;5546;48.714;8.738;2022-11-23T16:42:50;10.70;95.20
10986;DHT22;5546;48.714;8.738;2022-11-23T16:45:16;10.70;95.40
10986;DHT22;5546;48.714;8.738;2022-11-23T16:48:01;10.60;95.60
10986;DHT22;5546;48.714;8.738;2022-11-23T16:50:29;10.10;96.00
10986;DHT22;5546;48.714;8.738;2022-11-23T16:52:55;10.30;96.30
10986;DHT22;5546;48.714;8.738;2022-11-23T16:55:21;10.60;96.00
10986;DHT22;5546;48.714;8.738;2022-11-23T16:57:47;10.60;96.00
10986;DHT22;5546;48.714;8.738;2022-11-23T17:00:16;10.70;95.70
10986;DHT22;5546;48.714;8.738;2022-11-23T17:02:42;10.60;95.90
10986;DHT22;5546;48.714;8.738;2022-11-23T17:05:16;10.40;96.10
10986;DHT22;5546;48.714;8.738;2022-11-23T17:07:42;10.40;96.20
10986;DHT22;5546;48.714;8.738;2022-11-23T17:10:09;9.70;96.80
10986;DHT22;5546;48.714;8.738;2022-11-23T17:12:35;9.70;97.30
10986;DHT22;5546;48.714;8.738;2022-11-23T17:15:02;9.90;96.80
10986;DHT22;5546;48.714;8.738;2022-11-23T17:17:28;9.80;97.00
10986;DHT22;5546;48.714;8.738;2022-11-23T17:19:54;10.20;96.60
10986;DHT22;5546;48.714;8.738;2022-11-23T17:22:20;10.20;96.80
10986;DHT22;5546;48.714;8.738;2022-11-23T17:24:47;10.20;96.40
10986;DHT22;5546;48.714;8.738;2022-11-23T17:27:19;10.10;96.60
10986;DHT22;5546;48.714;8.738;2022-11-23T17:29:46;9.80;96.70
10986;DHT22;5546;48.714;8.738;2022-11-23T17:32:13;9.50;97.30
10986;DHT22;5546;48.714;8.738;2022-11-23T17:34:39;9.50;97.60
10986;DHT22;5546;48.714;8.738;2022-11-23T17:37:05;9.70;97.30
10986;DHT22;5546;48.714;8.738;2022-11-23T17:39:31;9.80;97.60
10986;DHT22;5546;48.714;8.738;2022-11-23T17:41:57;9.60;97.80
10986;DHT22;5546;48.714;8.738;2022-11-23T17:44:22;9.20;98.40
10986;DHT22;5546;48.714;8.738;2022-11-23T17:46:48;9.20;98.80
10986;DHT22;5546;48.714;8.738;2022-11-23T17:49:17;9.50;98.20
10986;DHT22;5546;48.714;8.738;2022-11-23T17:51:44;9.60;97.90
10986;DHT22;5546;48.714;8.738;2022-11-23T17:54:10;9.60;98.20
10986;DHT22;5546;48.714;8.738;2022-11-23T17:56:36;9.60;97.90
10986;DHT22;5546;48.714;8.738;2022-11-23T17:59:03;9.80;97.40